Time;durP1;ratioP1;P1;durP2;ratioP2;P2;SDS_P1;SDS_P2;PMS_P1;PMS_P2;Temp;Humidity;BMP_temperature;BMP_pressure;BME280_temperature;BME280_humidity;BME280_pressure;Samples;Min_cycle;Max_cycle;Signal;HPM_P1;HPM_P2
2023/12/22 00:01:16;;;;;;;4.22;1.85;;;;;;;4.22;78.98;96643.69;5032077;28;20278;-57
2023/12/22 00:03:43;;;;;;;2.33;2.13;;;;;;;4.56;79.59;96694.09;5032013;28;20183;-58
2023/12/22 00:06:11;;;;;;;2.88;2.10;;;;;;;4.43;80.03;96692.53;5048445;28;20208;-57
2023/12/22 00:08:36;;;;;;;2.28;2.08;;;;;;;4.39;80.38;96689.38;5051641;28;20216;-58
2023/12/22 00:11:02;;;;;;;1.92;1.83;;;;;;;4.40;80.38;96685.91;5051829;28;20648;-58
2023/12/22 00:13:27;;;;;;;2.25;2.05;;;;;;;3.69;81.36;96577.63;5031619;28;20256;-57
2023/12/22 00:15:53;;;;;;;2.65;2.45;;;;;;;4.12;80.73;96636.75;5031796;28;20296;-58
2023/12/22 00:18:18;;;;;;;2.50;2.10;;;;;;;4.01;80.40;96596.59;5031630;28;20272;-57
2023/12/22 00:20:43;;;;;;;5.85;3.28;;;;;;;3.73;79.97;96529.63;5031761;28;20182;-58
2023/12/22 00:23:09;;;;;;;2.85;2.13;;;;;;;4.23;79.42;96606.94;5031632;28;20265;-57
2023/12/22 00:25:34;;;;;;;2.05;1.90;;;;;;;4.05;79.78;96558.81;5031376;28;20222;-58
2023/12/22 00:27:59;;;;;;;2.10;2.00;;;;;;;3.86;79.47;96512.47;5031568;28;20661;-58
2023/12/22 00:30:25;;;;;;;1.90;1.80;;;;;;;4.08;79.09;96546.63;5031618;28;20191;-57
2023/12/22 00:32:50;;;;;;;1.83;1.73;;;;;;;4.59;78.99;96627.31;5011591;28;20187;-58
2023/12/22 00:35:16;;;;;;;1.95;1.85;;;;;;;4.74;78.77;96643.28;4991868;28;20221;-57
2023/12/22 00:37:41;;;;;;;1.92;1.77;;;;;;;4.72;78.49;96633.16;4991945;28;20669;-58
2023/12/22 00:40:09;;;;;;;1.90;1.80;;;;;;;4.63;78.49;96618.47;4991957;28;20291;-58
2023/12/22 00:42:34;;;;;;;1.92;1.70;;;;;;;4.74;78.17;96625.38;4991888;28;20805;-57
2023/12/22 00:45:00;;;;;;;2.45;1.60;;;;;;;4.89;78.36;96649.88;4991971;28;20283;-58
2023/12/22 00:47:25;;;;;;;2.38;1.70;;;;;;;4.32;78.29;96557.63;4991669;28;20278;-58
2023/12/22 00:49:51;;;;;;;1.70;1.60;;;;;;;4.81;78.48;96629.09;4990704;28;20214;-58
2023/12/22 00:52:16;;;;;;;1.55;1.48;;;;;;;4.48;78.60;96585.50;4991828;28;20194;-58
2023/12/22 00:54:41;;;;;;;1.98;1.85;;;;;;;4.52;79.01;96595.41;4991827;28;20282;-58
2023/12/22 00:57:07;;;;;;;1.50;1.40;;;;;;;4.27;79.24;96554.56;4991845;28;20176;-58
2023/12/22 00:59:32;;;;;;;1.80;1.70;;;;;;;4.24;79.09;96539.47;4991622;28;20567;-58
2023/12/22 01:01:57;;;;;;;2.20;2.10;;;;;;;4.44;79.09;96587.44;4991641;28;20184;-58
2023/12/22 01:04:23;;;;;;;1.80;1.70;;;;;;;4.72;79.42;96638.28;5020344;28;20748;-58
2023/12/22 01:06:48;;;;;;;1.52;1.42;;;;;;;4.83;78.93;96634.94;5046914;28;20182;-58
2023/12/22 01:09:14;;;;;;;1.70;1.60;;;;;;;4.73;78.88;96619.41;5053210;28;20265;-58
2023/12/22 01:11:41;;;;;;;1.90;1.80;;;;;;;4.81;79.10;96617.13;5053085;28;20289;-58
2023/12/22 01:14:07;;;;;;;1.90;1.80;;;;;;;5.00;79.13;96625.06;5053118;28;20686;-56
2023/12/22 01:16:33;;;;;;;2.00;1.80;;;;;;;4.99;79.14;96622.59;5053363;28;20231;-58
2023/12/22 01:18:58;;;;;;;2.67;2.47;;;;;;;4.75;80.03;96586.84;5052963;28;20213;-58
2023/12/22 01:21:23;;;;;;;4.65;3.67;;;;;;;4.54;79.27;96542.31;5052906;28;20661;-59
2023/12/22 01:23:49;;;;;;;4.03;3.63;;;;;;;5.06;79.77;96624.59;5053016;28;20185;-58
2023/12/22 01:26:14;;;;;;;3.50;3.13;;;;;;;4.82;80.41;96582.88;5052930;28;20291;-58
2023/12/22 01:28:40;;;;;;;4.28;2.65;;;;;;;5.09;80.73;96616.69;5052836;28;20181;-58
2023/12/22 01:31:05;;;;;;;2.97;2.78;;;;;;;4.83;80.88;96568.34;5052841;28;20186;-58
2023/12/22 01:33:30;;;;;;;2.10;2.00;;;;;;;5.04;79.90;96612.84;5030194;28;20190;-58
2023/12/22 01:35:56;;;;;;;3.50;2.97;;;;;;;4.43;80.33;96524.38;5030350;28;20277;-56
2023/12/22 01:38:21;;;;;;;5.85;3.50;;;;;;;4.74;79.84;96569.84;5030173;28;20217;-57
2023/12/22 01:40:47;;;;;;;2.50;2.30;;;;;;;4.38;80.56;96521.34;5030281;28;20181;-57
2023/12/22 01:43:14;;;;;;;3.15;2.85;;;;;;;4.67;81.16;96557.59;5030196;28;20560;-57
2023/12/22 01:45:43;;;;;;;2.92;2.45;;;;;;;4.73;80.71;96547.69;5030154;28;20186;-57
2023/12/22 01:48:09;;;;;;;1.83;1.73;;;;;;;4.62;80.29;96541.75;5029981;28;20248;-57
2023/12/22 01:50:36;;;;;;;4.05;2.10;;;;;;;4.72;80.81;96574.25;5030288;28;20327;-57
2023/12/22 01:53:02;;;;;;;2.95;2.10;;;;;;;4.41;80.96;96505.75;5029992;28;20273;-56
2023/12/22 01:55:27;;;;;;;1.55;1.55;;;;;;;4.36;80.91;96497.59;5029966;28;20721;-56
2023/12/22 01:57:53;;;;;;;2.25;1.85;;;;;;;4.57;81.26;96546.41;5029880;28;20212;-57
2023/12/22 02:00:18;;;;;;;2.33;1.60;;;;;;;4.63;81.89;96557.00;5029673;28;20222;-57
2023/12/22 02:02:44;;;;;;;1.63;1.52;;;;;;;4.18;82.37;96470.81;5029850;28;20176;-57
2023/12/22 02:05:11;;;;;;;2.95;1.70;;;;;;;4.21;82.47;96514.09;5046954;28;20609;-56
2023/12/22 02:07:40;;;;;;;2.17;1.65;;;;;;;4.20;83.35;96506.53;5052065;28;20177;-56
2023/12/22 02:10:08;;;;;;;1.83;1.60;;;;;;;4.49;82.87;96549.53;5051755;28;20690;-57
2023/12/22 02:12:34;;;;;;;4.60;1.60;;;;;;;4.49;82.61;96546.97;5051866;28;20177;-56
2023/12/22 02:15:00;;;;;;;1.52;1.42;;;;;;;3.93;83.06;96450.53;5052322;28;20173;-57
2023/12/22 02:17:52;;;;;;;1.77;1.67;;;;;;;4.60;82.78;96552.09;5051843;28;20174;-57
2023/12/22 02:20:19;;;;;;;6.68;3.35;;;;;;;4.38;82.62;96511.09;5029410;28;20289;-57
2023/12/22 02:22:44;;;;;;;4.05;3.65;;;;;;;4.14;82.39;96476.28;5029514;28;20218;-57
2023/12/22 02:25:10;;;;;;;2.92;2.58;;;;;;;4.17;83.17;96456.41;4989695;28;20330;-57
2023/12/22 02:27:45;;;;;;;6.05;3.75;;;;;;;4.46;83.49;96495.16;4990103;28;20288;-57
2023/12/22 02:30:23;;;;;;;8.80;4.97;;;;;;;4.31;81.74;96451.06;4990087;28;20673;-57
2023/12/22 02:32:54;;;;;;;5.32;3.45;;;;;;;4.59;80.67;96473.66;4990062;28;20188;-57
2023/12/22 02:35:23;;;;;;;6.43;3.97;;;;;;;5.01;81.62;96525.94;4990297;28;20192;-57
2023/12/22 02:37:50;;;;;;;3.88;3.53;;;;;;;4.73;81.66;96481.09;4989809;28;20204;-57
2023/12/22 02:40:17;;;;;;;4.82;3.30;;;;;;;4.47;82.54;96431.06;4989908;28;20191;-57
2023/12/22 02:42:44;;;;;;;5.00;3.85;;;;;;;4.26;83.09;96388.34;4989854;28;20245;-57
2023/12/22 02:45:15;;;;;;;5.38;4.57;;;;;;;5.02;83.46;96532.69;4989802;28;20693;-57
2023/12/22 02:47:40;;;;;;;6.28;4.85;;;;;;;4.81;83.22;96483.91;4989807;28;20180;-57
2023/12/22 02:50:07;;;;;;;7.40;4.90;;;;;;;5.14;81.85;96517.19;4989732;28;20192;-57
2023/12/22 02:52:33;;;;;;;7.22;4.70;;;;;;;5.00;81.16;96486.69;4989741;28;20608;-57
2023/12/22 02:54:58;;;;;;;6.70;4.45;;;;;;;5.28;81.40;96518.69;4990161;28;20276;-57
2023/12/22 02:57:24;;;;;;;7.82;4.65;;;;;;;4.69;82.02;96417.44;5041194;28;20182;-57
2023/12/22 02:59:49;;;;;;;4.70;4.05;;;;;;;4.56;82.30;96409.88;5051271;28;20205;-57
2023/12/22 03:02:15;;;;;;;6.15;4.53;;;;;;;5.23;83.00;96524.19;5051352;28;20691;-57
2023/12/22 03:04:40;;;;;;;8.40;6.03;;;;;;;5.18;82.85;96505.78;5051303;28;20240;-57
2023/12/22 03:07:06;;;;;;;6.97;5.80;;;;;;;5.43;79.95;96546.50;5051314;28;20181;-57
2023/12/22 03:09:34;;;;;;;8.25;5.55;;;;;;;5.34;79.65;96521.59;5051166;28;20703;-57
2023/12/22 03:12:03;;;;;;;8.52;4.68;;;;;;;5.31;80.50;96532.06;5052488;28;20174;-57
2023/12/22 03:14:33;;;;;;;5.95;5.28;;;;;;;4.45;81.25;96402.22;5055368;28;20189;-57
2023/12/22 03:16:59;;;;;;;6.30;5.00;;;;;;;5.06;81.76;96501.59;5055512;28;20228;-57
2023/12/22 03:19:25;;;;;;;7.10;4.63;;;;;;;5.16;82.48;96535.84;5055072;28;20334;-57
2023/12/22 03:21:50;;;;;;;7.35;5.38;;;;;;;4.85;82.97;96487.06;5055195;28;20644;-57
2023/12/22 03:24:16;;;;;;;7.60;5.65;;;;;;;4.30;83.29;96402.53;5055068;28;20233;-57
2023/12/22 03:26:41;;;;;;;7.50;5.82;;;;;;;5.00;83.55;96501.22;5052569;28;20182;-57
2023/12/22 03:29:07;;;;;;;6.43;5.40;;;;;;;5.27;82.96;96551.22;5072403;28;20250;-57
2023/12/22 03:31:32;;;;;;;7.35;5.07;;;;;;;4.99;79.93;96486.78;5072841;28;20639;-57
2023/12/22 03:33:57;;;;;;;5.50;5.00;;;;;;;5.33;79.38;96555.03;5072538;28;20189;-57
2023/12/22 03:36:23;;;;;;;7.18;5.60;;;;;;;4.89;80.31;96485.91;5072425;28;20224;-57
2023/12/22 03:38:48;;;;;;;7.40;4.68;;;;;;;4.52;81.61;96440.94;5072388;28;20221;-57
2023/12/22 03:41:13;;;;;;;10.48;4.97;;;;;;;4.97;82.01;96507.44;5072390;28;20188;-57
2023/12/22 03:43:39;;;;;;;6.20;5.10;;;;;;;5.21;82.33;96544.00;5072350;28;20187;-57
2023/12/22 03:46:04;;;;;;;4.45;4.03;;;;;;;5.15;82.71;96538.50;5072493;28;20204;-57
2023/12/22 03:48:30;;;;;;;6.88;4.25;;;;;;;4.90;82.19;96495.22;5072246;28;20181;-57
2023/12/22 03:50:55;;;;;;;3.67;3.38;;;;;;;5.04;82.72;96539.34;5072210;28;20205;-57
2023/12/22 03:53:20;;;;;;;4.45;3.20;;;;;;;4.89;83.50;96491.81;5072056;28;20193;-57
2023/12/22 03:55:46;;;;;;;3.25;2.50;;;;;;;4.76;83.06;96450.16;5072142;28;20184;-57
2023/12/22 03:58:12;;;;;;;2.63;2.40;;;;;;;4.62;83.57;96452.94;5071940;28;20735;-57
2023/12/22 04:00:37;;;;;;;2.75;1.70;;;;;;;4.86;83.08;96493.81;5071979;28;20181;-57
2023/12/22 04:03:03;;;;;;;1.50;1.40;;;;;;;4.48;84.17;96449.81;5072015;28;20177;-57
2023/12/22 04:05:29;;;;;;;2.92;1.88;;;;;;;4.23;84.62;96425.22;5070675;28;20279;-57
2023/12/22 04:07:55;;;;;;;2.33;1.70;;;;;;;4.08;85.70;96413.56;5054280;28;20675;-57
2023/12/22 04:10:20;;;;;;;1.60;1.50;;;;;;;4.62;85.40;96488.78;5054257;28;20181;-57
2023/12/22 04:12:46;;;;;;;1.92;1.83;;;;;;;4.50;85.92;96479.47;5051616;28;20197;-57
2023/12/22 04:15:11;;;;;;;1.80;1.58;;;;;;;3.96;86.68;96395.78;5051828;28;20181;-57
2023/12/22 04:17:36;;;;;;;1.70;1.60;;;;;;;4.21;87.09;96444.97;5051628;28;20218;-57
2023/12/22 04:20:02;;;;;;;1.95;1.85;;;;;;;4.37;87.93;96483.88;5051692;28;20213;-57
2023/12/22 04:22:28;;;;;;;2.10;1.70;;;;;;;4.08;87.25;96431.47;5051315;28;20189;-57
2023/12/22 04:24:53;;;;;;;2.00;1.90;;;;;;;4.24;86.91;96442.22;5051492;28;20274;-57
2023/12/22 04:27:19;;;;;;;1.88;1.50;;;;;;;4.25;86.68;96428.47;5051609;28;20182;-57
2023/12/22 04:29:44;;;;;;;1.90;1.80;;;;;;;4.06;86.68;96394.16;5051486;28;20280;-57
2023/12/22 04:32:09;;;;;;;2.10;1.67;;;;;;;4.25;86.33;96418.25;5051472;28;20292;-57
2023/12/22 04:34:35;;;;;;;1.75;1.65;;;;;;;4.54;86.69;96455.25;5051461;28;20174;-57
2023/12/22 04:37:00;;;;;;;2.72;1.55;;;;;;;4.50;87.42;96453.84;5051430;28;20180;-57
2023/12/22 04:39:25;;;;;;;1.67;1.58;;;;;;;3.92;87.63;96361.13;5051357;28;20214;-57
2023/12/22 04:41:51;;;;;;;1.58;1.48;;;;;;;4.27;87.39;96398.47;5051416;28;20184;-57
2023/12/22 04:44:16;;;;;;;1.80;1.70;;;;;;;4.62;86.83;96445.25;5052802;28;20570;-57
2023/12/22 04:46:42;;;;;;;2.00;1.88;;;;;;;4.22;86.90;96380.09;5053462;28;20200;-57
2023/12/22 04:49:07;;;;;;;1.70;1.60;;;;;;;4.72;86.45;96453.06;5053562;28;20625;-57
2023/12/22 04:51:32;;;;;;;1.63;1.52;;;;;;;4.42;85.55;96399.03;5053397;28;20234;-57
2023/12/22 04:53:58;;;;;;;1.55;1.50;;;;;;;4.17;84.99;96353.22;5053504;28;20644;-57
2023/12/22 04:56:23;;;;;;;1.50;1.40;;;;;;;4.26;84.62;96381.47;5053483;28;20178;-57
2023/12/22 04:58:49;;;;;;;6.05;3.47;;;;;;;4.59;84.11;96429.31;5053369;28;20205;-57
2023/12/22 05:01:14;;;;;;;7.35;5.68;;;;;;;5.09;85.31;96487.72;5053446;28;20174;-57
2023/12/22 05:03:39;;;;;;;13.50;7.95;;;;;;;4.90;85.11;96457.56;5053318;28;20589;-57
2023/12/22 05:06:05;;;;;;;16.60;10.82;;;;;;;4.44;85.64;96408.25;5053343;28;20197;-57
2023/12/22 05:08:30;;;;;;;12.73;8.45;;;;;;;4.47;86.37;96412.31;5053174;28;20320;-57
2023/12/22 05:10:56;;;;;;;12.20;8.52;;;;;;;4.82;86.86;96449.66;5050499;28;20269;-57
2023/12/22 05:13:21;;;;;;;11.25;8.50;;;;;;;5.10;86.69;96508.13;5050644;28;20182;-57
2023/12/22 05:15:47;;;;;;;14.07;9.05;;;;;;;4.56;86.81;96414.97;5050616;28;20244;-57
2023/12/22 05:18:13;;;;;;;12.75;8.48;;;;;;;4.57;86.65;96398.72;5050583;28;20209;-58
2023/12/22 05:20:38;;;;;;;12.15;8.02;;;;;;;4.88;86.64;96444.06;5050572;28;20236;-58
2023/12/22 05:23:03;;;;;;;9.95;7.65;;;;;;;5.16;87.29;96484.56;5050546;28;20217;-58
2023/12/22 05:25:29;;;;;;;10.45;7.05;;;;;;;4.71;87.31;96384.81;5050432;28;21519;-56
2023/12/22 05:27:54;;;;;;;3.58;2.42;;;;;;;5.02;85.35;96413.06;5070247;28;20189;-56
2023/12/22 05:30:20;;;;;;;2.10;2.00;;;;;;;4.77;85.10;96364.69;5070636;28;20193;-57
2023/12/22 05:32:45;;;;;;;2.13;2.00;;;;;;;5.03;84.53;96396.78;5070253;28;20188;-57
2023/12/22 05:35:11;;;;;;;1.83;1.73;;;;;;;5.12;84.19;96400.38;5069493;28;20186;-57
2023/12/22 05:37:36;;;;;;;1.38;1.27;;;;;;;5.20;83.87;96424.44;5069976;28;20212;-57
2023/12/22 05:40:02;;;;;;;1.67;1.58;;;;;;;4.95;83.53;96368.38;5070177;28;20181;-57
2023/12/22 05:42:27;;;;;;;1.35;1.30;;;;;;;5.14;84.00;96419.00;5070101;28;20547;-57
2023/12/22 05:44:53;;;;;;;2.40;1.70;;;;;;;5.08;84.15;96401.53;5070111;28;20555;-58
2023/12/22 05:47:19;;;;;;;3.92;2.00;;;;;;;4.99;84.28;96367.19;5069970;28;20189;-57
2023/12/22 05:49:45;;;;;;;3.47;2.55;;;;;;;5.35;83.88;96438.63;5069918;28;20671;-57
2023/12/22 05:52:11;;;;;;;1.70;1.60;;;;;;;5.13;83.79;96400.22;5069954;28;20217;-57
2023/12/22 05:54:38;;;;;;;3.42;3.05;;;;;;;5.39;83.41;96450.25;5069826;28;20189;-57
2023/12/22 05:57:06;;;;;;;1.67;1.58;;;;;;;5.13;83.31;96407.13;5069898;28;20541;-57
2023/12/22 05:59:32;;;;;;;2.03;1.77;;;;;;;5.43;83.34;96453.41;5056043;28;20216;-57
2023/12/22 06:01:58;;;;;;;1.90;1.70;;;;;;;5.04;83.36;96393.28;5069443;28;20275;-57
2023/12/22 06:04:24;;;;;;;2.75;1.73;;;;;;;5.07;83.53;96390.47;5069690;28;20189;-57
2023/12/22 06:06:50;;;;;;;1.98;1.88;;;;;;;5.04;83.26;96403.53;5069651;28;20706;-57
2023/12/22 06:09:17;;;;;;;2.05;1.83;;;;;;;4.75;83.64;96366.56;5069681;28;20646;-57
2023/12/22 06:11:42;;;;;;;3.20;2.85;;;;;;;4.75;84.77;96369.13;5069663;28;20677;-57
2023/12/22 06:14:08;;;;;;;2.42;2.10;;;;;;;5.05;85.00;96417.97;5069613;28;20184;-57
2023/12/22 06:16:33;;;;;;;2.03;1.92;;;;;;;5.27;86.06;96452.97;5069565;28;20196;-58
2023/12/22 06:18:58;;;;;;;2.92;2.47;;;;;;;5.17;85.52;96424.69;5069368;28;20281;-58
2023/12/22 06:21:24;;;;;;;4.13;2.78;;;;;;;5.32;84.35;96436.31;5069457;28;20350;-58
2023/12/22 06:23:50;;;;;;;3.20;2.88;;;;;;;5.50;84.42;96455.38;5069236;28;20584;-58
2023/12/22 06:26:15;;;;;;;3.63;3.10;;;;;;;4.97;85.04;96360.56;5069483;28;20189;-58
2023/12/22 06:28:41;;;;;;;2.30;2.10;;;;;;;5.72;83.16;96459.59;5069333;28;20189;-58
2023/12/22 06:31:07;;;;;;;1.88;1.70;;;;;;;5.31;82.69;96396.19;5069433;28;20341;-58
2023/12/22 06:33:33;;;;;;;1.70;1.60;;;;;;;5.67;83.12;96457.41;5055711;28;20178;-58
2023/12/22 06:35:58;;;;;;;2.22;1.80;;;;;;;5.72;82.99;96467.28;5029156;28;20193;-58
2023/12/22 06:38:23;;;;;;;13.05;5.60;;;;;;;5.50;83.34;96427.16;5029243;28;20289;-58
2023/12/22 06:40:50;;;;;;;16.90;8.82;;;;;;;5.82;83.99;96486.19;5029209;28;20665;-58
2023/12/22 06:43:15;;;;;;;6.95;4.05;;;;;;;5.96;83.30;96486.69;5020923;28;20190;-58
2023/12/22 06:45:41;;;;;;;7.20;4.50;;;;;;;5.69;83.17;96436.72;5009189;28;20678;-58
2023/12/22 06:48:07;;;;;;;8.50;4.20;;;;;;;5.55;82.49;96394.22;5009247;28;20698;-58
2023/12/22 06:50:32;;;;;;;6.80;5.13;;;;;;;6.04;82.81;96471.47;5009167;28;20195;-58
2023/12/22 06:52:57;;;;;;;27.33;12.60;;;;;;;5.76;83.17;96407.09;5009452;28;20270;-58
2023/12/22 06:55:23;;;;;;;7.43;4.55;;;;;;;6.00;82.32;96435.94;5008203;28;20210;-58
2023/12/22 06:57:49;;;;;;;9.13;4.40;;;;;;;5.92;81.75;96418.59;5008872;28;20182;-58
2023/12/22 07:00:15;;;;;;;9.63;4.70;;;;;;;5.96;82.39;96417.41;5009119;28;20750;-58
2023/12/22 07:02:41;;;;;;;4.00;3.40;;;;;;;6.05;81.65;96426.91;5009103;28;20253;-58
2023/12/22 07:05:09;;;;;;;31.02;13.55;;;;;;;6.41;82.30;96482.91;5009072;28;20286;-57
2023/12/22 07:07:35;;;;;;;39.60;18.05;;;;;;;6.05;82.91;96436.34;5025406;28;20277;-58
2023/12/22 07:10:00;;;;;;;38.53;17.80;;;;;;;6.31;83.82;96458.13;5031483;28;20596;-58
2023/12/22 07:12:26;;;;;;;25.27;14.13;;;;;;;6.33;84.28;96472.47;5028477;28;20194;-57
2023/12/22 07:14:51;;;;;;;31.42;14.77;;;;;;;5.89;84.57;96400.06;5028501;28;20229;-56
2023/12/22 07:17:17;;;;;;;29.20;15.10;;;;;;;6.29;85.29;96470.31;5028717;28;20190;-56
2023/12/22 07:19:42;;;;;;;25.13;12.60;;;;;;;5.82;85.95;96379.22;5028551;28;20214;-57
2023/12/22 07:22:08;;;;;;;5.68;3.88;;;;;;;6.41;83.61;96466.72;5028566;28;20182;-57
2023/12/22 07:24:34;;;;;;;11.88;6.78;;;;;;;6.51;83.70;96468.38;5028319;28;20665;-56
2023/12/22 07:26:59;;;;;;;30.98;13.32;;;;;;;6.11;83.24;96387.09;5028554;28;20691;-56
2023/12/22 07:29:24;;;;;;;49.95;23.17;;;;;;;6.28;83.14;96419.84;5028453;28;20186;-57
2023/12/22 07:31:50;;;;;;;39.42;20.85;;;;;;;6.10;83.08;96376.00;5028425;28;20191;-57
2023/12/22 07:34:16;;;;;;;38.63;21.48;;;;;;;6.70;82.83;96465.91;5028494;28;20611;-56
2023/12/22 07:36:42;;;;;;;38.85;21.00;;;;;;;6.64;82.51;96458.72;5028449;28;20175;-57
2023/12/22 07:39:09;;;;;;;34.55;18.75;;;;;;;6.67;81.76;96476.44;5028310;28;20221;-57
2023/12/22 07:41:34;;;;;;;30.05;19.65;;;;;;;6.74;81.84;96485.28;5028354;28;20236;-57
2023/12/22 07:44:01;;;;;;;40.85;22.10;;;;;;;6.68;81.93;96475.50;5029869;28;20198;-57
2023/12/22 07:46:28;;;;;;;45.70;24.98;;;;;;;6.78;82.29;96485.81;5030714;28;20265;-57
2023/12/22 07:48:53;;;;;;;50.40;27.90;;;;;;;6.70;82.31;96467.69;5030062;28;20645;-57
2023/12/22 07:51:19;;;;;;;80.63;37.08;;;;;;;6.83;82.52;96484.47;5029766;28;20312;-57
2023/12/22 07:53:44;;;;;;;104.30;44.13;;;;;;;6.30;82.15;96382.84;5030962;28;20202;-58
2023/12/22 07:56:10;;;;;;;91.85;43.75;;;;;;;6.80;82.44;96445.38;5030704;28;20254;-58
2023/12/22 07:58:36;;;;;;;91.72;43.67;;;;;;;6.91;82.43;96458.13;5032249;28;20211;-58
2023/12/22 08:01:02;;;;;;;66.82;36.03;;;;;;;6.71;82.35;96423.03;5034691;28;20181;-58
2023/12/22 08:03:28;;;;;;;70.85;36.97;;;;;;;6.87;82.46;96447.31;5034546;28;20261;-58
2023/12/22 08:05:54;;;;;;;59.78;31.92;;;;;;;6.93;83.12;96464.78;5034468;28;20352;-57
2023/12/22 08:08:19;;;;;;;47.60;27.20;;;;;;;6.44;83.02;96361.97;5034513;28;20213;-58
2023/12/22 08:10:44;;;;;;;10.13;5.75;;;;;;;6.65;79.87;96390.97;5034500;28;20256;-57
2023/12/22 08:13:10;;;;;;;7.35;3.22;;;;;;;7.01;79.92;96441.00;5034163;28;20182;-58
2023/12/22 08:15:35;;;;;;;10.27;4.63;;;;;;;7.11;80.00;96458.06;5034344;28;20232;-57
2023/12/22 08:18:01;;;;;;;5.78;3.78;;;;;;;6.74;79.39;96387.63;5034276;28;20238;-57
2023/12/22 08:20:26;;;;;;;2.85;2.63;;;;;;;6.76;78.98;96370.31;5034283;28;20178;-58
2023/12/22 08:22:52;;;;;;;2.22;1.90;;;;;;;7.35;78.54;96460.28;5033984;28;20186;-57
2023/12/22 08:25:20;;;;;;;2.65;2.45;;;;;;;6.68;78.40;96352.16;5033846;28;20197;-58
2023/12/22 08:27:46;;;;;;;3.28;2.42;;;;;;;7.14;78.36;96434.69;5034186;28;20179;-57
2023/12/22 08:30:12;;;;;;;2.50;2.30;;;;;;;7.01;78.58;96426.41;5034144;28;20186;-58
2023/12/22 08:32:37;;;;;;;2.08;1.92;;;;;;;6.78;79.08;96396.72;5034061;28;20190;-56
2023/12/22 08:35:04;;;;;;;2.15;1.98;;;;;;;7.17;79.12;96451.59;5034072;28;20633;-58
2023/12/22 08:37:30;;;;;;;1.85;1.70;;;;;;;6.83;78.42;96391.16;5033897;28;20645;-57
2023/12/22 08:39:55;;;;;;;1.90;1.80;;;;;;;7.33;78.42;96468.13;5033839;28;20209;-56
2023/12/22 08:42:22;;;;;;;2.13;2.03;;;;;;;7.19;77.72;96429.94;5033878;28;20556;-56
2023/12/22 08:44:47;;;;;;;1.90;1.80;;;;;;;7.05;78.11;96401.22;5033800;28;20214;-57
2023/12/22 08:47:13;;;;;;;3.40;1.90;;;;;;;6.99;78.17;96369.13;5033812;28;20268;-58
2023/12/22 08:49:38;;;;;;;3.33;2.63;;;;;;;7.65;78.03;96468.75;5044638;28;20220;-58
2023/12/22 08:52:04;;;;;;;3.13;2.50;;;;;;;7.52;78.20;96428.78;5033515;28;20190;-58
2023/12/22 08:54:30;;;;;;;12.80;8.52;;;;;;;7.33;78.27;96385.84;5033480;28;20244;-57
2023/12/22 08:56:55;;;;;;;31.50;14.75;;;;;;;7.98;78.77;96475.25;5033466;28;20210;-57
2023/12/22 08:59:21;;;;;;;38.58;19.52;;;;;;;7.71;79.05;96413.31;5050599;28;20210;-58
2023/12/22 09:01:46;;;;;;;34.67;17.70;;;;;;;7.28;78.88;96341.69;5050756;28;20276;-58
2023/12/22 09:04:12;;;;;;;33.90;16.13;;;;;;;8.21;77.25;96512.69;5050738;28;20181;-57
2023/12/22 09:06:37;;;;;;;23.10;13.40;;;;;;;8.05;75.93;96487.41;5050618;28;20707;-57
2023/12/22 09:09:03;;;;;;;22.10;13.05;;;;;;;8.07;75.88;96477.81;5049701;28;20273;-57
2023/12/22 09:11:29;;;;;;;28.48;12.98;;;;;;;7.67;75.11;96399.09;5050199;28;20756;-58
2023/12/22 09:13:55;;;;;;;23.48;12.95;;;;;;;7.50;75.14;96403.16;5048833;28;20269;-57
2023/12/22 09:16:22;;;;;;;38.40;14.70;;;;;;;8.07;75.40;96490.69;5050554;28;20196;-58
2023/12/22 09:18:47;;;;;;;24.42;13.55;;;;;;;7.79;75.67;96455.47;5050573;28;20221;-57
2023/12/22 09:21:12;;;;;;;22.75;12.25;;;;;;;7.88;76.08;96479.56;5050606;28;20186;-58
2023/12/22 09:23:38;;;;;;;21.77;12.32;;;;;;;7.46;76.54;96412.09;5050552;28;20182;-58
2023/12/22 09:26:04;;;;;;;22.83;13.23;;;;;;;7.35;76.65;96398.56;5050288;28;20735;-58
2023/12/22 09:28:30;;;;;;;34.70;18.30;;;;;;;7.91;76.98;96495.56;5050362;28;20322;-57
2023/12/22 09:30:55;;;;;;;35.45;18.83;;;;;;;7.52;77.11;96406.41;5035453;28;20193;-58
2023/12/22 09:33:22;;;;;;;32.97;16.33;;;;;;;8.06;76.48;96483.91;5030369;28;20391;-57
2023/12/22 09:35:48;;;;;;;35.15;18.02;;;;;;;7.53;76.08;96392.63;5010369;28;20617;-57
2023/12/22 09:38:13;;;;;;;37.88;18.70;;;;;;;8.04;76.58;96490.16;5010425;28;20255;-57
2023/12/22 09:40:39;;;;;;;37.33;18.02;;;;;;;7.87;77.83;96458.16;4971290;28;20200;-57
2023/12/22 09:43:06;;;;;;;32.45;15.88;;;;;;;8.04;78.93;96487.56;4971507;28;20608;-57
2023/12/22 09:45:33;;;;;;;32.38;19.85;;;;;;;7.92;79.96;96470.66;4971430;28;20774;-57
2023/12/22 09:48:00;;;;;;;30.83;18.27;;;;;;;7.13;80.50;96337.09;4971359;28;20592;-58
2023/12/22 09:50:29;;;;;;;34.45;19.15;;;;;;;7.57;81.89;96393.16;4971204;28;20307;-57
2023/12/22 09:52:55;;;;;;;34.47;20.85;;;;;;;7.08;83.19;96306.66;4971300;28;20282;-57
2023/12/22 09:55:26;;;;;;;42.08;21.10;;;;;;;7.67;85.02;96394.78;4971206;28;20709;-57
2023/12/22 09:57:52;;;;;;;36.63;20.20;;;;;;;7.63;85.95;96370.25;4971192;28;20271;-57
2023/12/22 10:00:18;;;;;;;40.03;21.77;;;;;;;7.64;86.49;96359.00;4971168;28;20287;-58
2023/12/22 10:02:47;;;;;;;42.05;21.10;;;;;;;7.92;86.98;96409.66;4971181;28;20224;-57
2023/12/22 10:05:13;;;;;;;27.23;17.67;;;;;;;7.83;87.91;96383.91;4971077;28;20185;-57
2023/12/22 10:07:40;;;;;;;33.42;19.63;;;;;;;8.30;88.25;96452.59;4968036;28;20339;-57
2023/12/22 10:10:07;;;;;;;32.95;21.15;;;;;;;8.26;89.42;96446.09;4971089;28;20279;-57
2023/12/22 10:12:34;;;;;;;38.38;20.33;;;;;;;8.19;90.92;96422.63;4987970;28;20666;-58
2023/12/22 10:15:00;;;;;;;42.47;25.23;;;;;;;8.13;93.30;96415.47;4990152;28;20552;-58
2023/12/22 10:17:27;;;;;;;64.32;41.55;;;;;;;8.45;93.83;96458.94;4990327;28;20183;-58
2023/12/22 10:19:52;;;;;;;55.20;34.53;;;;;;;8.48;94.67;96444.00;4990195;28;20713;-58
2023/12/22 10:22:18;;;;;;;50.50;29.88;;;;;;;8.58;95.76;96459.44;4989838;28;20326;-58
2023/12/22 10:24:47;;;;;;;50.08;31.73;;;;;;;8.06;97.10;96362.88;4989744;28;20207;-57
2023/12/22 10:27:16;;;;;;;59.72;32.28;;;;;;;8.71;98.88;96450.44;4994716;28;20670;-58
2023/12/22 10:29:42;;;;;;;56.40;30.92;;;;;;;8.64;100.00;96436.50;5009634;28;20206;-57
2023/12/22 10:32:08;;;;;;;41.60;26.00;;;;;;;8.29;100.00;96382.25;5009682;28;20187;-58
2023/12/22 10:34:34;;;;;;;39.90;23.63;;;;;;;8.24;99.35;96391.31;5009578;28;20195;-57
2023/12/22 10:37:00;;;;;;;34.63;20.20;;;;;;;8.45;100.00;96446.06;5009460;28;20180;-57
2023/12/22 10:39:29;;;;;;;23.90;14.70;;;;;;;8.13;100.00;96373.44;4970122;28;20220;-57
2023/12/22 10:41:56;;;;;;;14.35;9.88;;;;;;;8.32;100.00;96414.66;4970502;28;20184;-57
2023/12/22 10:44:28;;;;;;;4.45;3.70;;;;;;;8.63;100.00;96465.78;4970413;28;20184;-56
2023/12/22 10:46:54;;;;;;;3.38;2.92;;;;;;;8.32;100.00;96381.16;4936897;28;20193;-56
2023/12/22 10:49:20;;;;;;;2.28;1.65;;;;;;;8.86;100.00;96464.50;4970096;28;20192;-57
2023/12/22 10:51:46;;;;;;;2.72;2.50;;;;;;;9.06;100.00;96455.72;4970277;28;20567;-57
2023/12/22 10:54:11;;;;;;;0.90;0.90;;;;;;;9.17;100.00;96483.09;4970078;28;20255;-57
2023/12/22 10:56:36;;;;;;;0.90;0.90;;;;;;;9.09;100.00;96428.84;4987054;28;20576;-57
2023/12/22 10:59:03;;;;;;;1.20;1.00;;;;;;;8.92;100.00;96391.72;4989561;28;20291;-57
2023/12/22 11:01:35;;;;;;;0.75;0.75;;;;;;;8.81;100.00;96363.56;4989640;28;20199;-57
2023/12/22 11:04:06;;;;;;;0.50;0.50;;;;;;;8.76;100.00;96365.78;4989554;28;20188;-58
2023/12/22 11:06:36;;;;;;;0.70;0.70;;;;;;;8.82;100.00;96380.66;4989622;28;20184;-57
2023/12/22 11:09:07;;;;;;;1.10;1.10;;;;;;;9.34;100.00;96449.59;4989546;28;20266;-58
2023/12/22 11:11:37;;;;;;;0.40;0.40;;;;;;;9.11;100.00;96411.44;5027364;28;20178;-58
2023/12/22 11:14:04;;;;;;;0.50;0.50;;;;;;;9.28;100.00;96433.88;5028876;28;20827;-57
2023/12/22 11:16:31;;;;;;;0.52;0.50;;;;;;;9.28;100.00;96421.81;5028790;28;20273;-58
2023/12/22 11:18:57;;;;;;;0.50;0.50;;;;;;;8.84;100.00;96355.53;5028789;28;20781;-58
2023/12/22 11:21:23;;;;;;;0.70;0.70;;;;;;;9.01;100.00;96390.88;5010240;28;20270;-58
2023/12/22 11:23:51;;;;;;;0.50;0.50;;;;;;;9.39;100.00;96431.91;5008846;28;20245;-57
2023/12/22 11:26:18;;;;;;;0.80;0.80;;;;;;;9.27;100.00;96412.41;5029847;28;20186;-58
2023/12/22 11:28:45;;;;;;;1.13;1.13;;;;;;;9.21;100.00;96365.78;5031099;28;20218;-58
2023/12/22 11:31:12;;;;;;;0.50;0.50;;;;;;;8.94;100.00;96317.63;5028583;28;20680;-58